Time;durP1;ratioP1;P1;durP2;ratioP2;P2;SDS_P1;SDS_P2;PMS_P1;PMS_P2;Temp;Humidity;BMP_temperature;BMP_pressure;BME280_temperature;BME280_humidity;BME280_pressure;Samples;Min_cycle;Max_cycle;Signal;HPM_P1;HPM_P2
2022/05/13 00:01:41;;;;;;;;;;;;;;;24.03;45.51;99629.03;5409239;26;33909;-89
2022/05/13 00:04:11;;;;;;;;;;;;;;;24.13;45.02;99629.25;5408348;26;33434;-89
2022/05/13 00:06:39;;;;;;;;;;;;;;;24.17;45.57;99630.72;5404454;26;34017;-88
2022/05/13 00:09:08;;;;;;;;;;;;;;;24.12;46.38;99623.09;5403329;26;35053;-89
2022/05/13 00:11:38;;;;;;;;;;;;;;;24.00;46.06;99623.97;5403286;26;33830;-89
2022/05/13 00:14:06;;;;;;;;;;;;;;;24.02;45.67;99632.66;5404047;26;34082;-88
2022/05/13 00:16:36;;;;;;;;;;;;;;;23.97;45.08;99640.06;5409368;26;33847;-89
2022/05/13 00:19:06;;;;;;;;;;;;;;;24.05;44.65;99635.09;5402992;26;36179;-88
2022/05/13 00:21:34;;;;;;;;;;;;;;;24.08;43.91;99634.03;5403876;26;34004;-88
2022/05/13 00:24:03;;;;;;;;;;;;;;;24.03;44.08;99644.94;5403593;26;34963;-88
2022/05/13 00:26:31;;;;;;;;;;;;;;;24.22;42.92;99650.66;5402860;26;33565;-88
2022/05/13 00:29:01;;;;;;;;;;;;;;;24.19;42.10;99661.47;5409403;26;33862;-88
2022/05/13 00:31:29;;;;;;;;;;;;;;;23.99;42.34;99654.94;5403826;26;33520;-88
2022/05/13 00:34:01;;;;;;;;;;;;;;;24.02;42.26;99648.56;5403202;26;33844;-88
2022/05/13 00:36:30;;;;;;;;;;;;;;;24.19;42.36;99650.87;5403009;26;33750;-88
2022/05/13 00:38:59;;;;;;;;;;;;;;;24.18;43.41;99658.91;5402670;26;34616;-88
2022/05/13 00:41:27;;;;;;;;;;;;;;;24.01;42.58;99649.50;5409389;26;33932;-88
2022/05/13 00:43:56;;;;;;;;;;;;;;;24.07;43.09;99651.75;5403490;26;34539;-88
2022/05/13 00:46:28;;;;;;;;;;;;;;;24.09;42.46;99660.44;5402623;26;32807;-89
2022/05/13 00:48:56;;;;;;;;;;;;;;;24.26;41.14;99656.59;5403778;26;34414;-89
2022/05/13 00:51:27;;;;;;;;;;;;;;;24.23;40.55;99670.03;5403641;26;34960;-89
2022/05/13 00:53:56;;;;;;;;;;;;;;;24.20;40.84;99663.16;5403504;26;34408;-89
2022/05/13 00:56:25;;;;;;;;;;;;;;;24.32;40.49;99657.97;5407963;26;33111;-89
2022/05/13 00:58:55;;;;;;;;;;;;;;;24.42;40.79;99649.22;5400982;26;34851;-90
2022/05/13 01:01:25;;;;;;;;;;;;;;;24.32;40.18;99652.66;5401376;26;33459;-90
2022/05/13 01:03:54;;;;;;;;;;;;;;;24.52;39.85;99654.75;5400887;26;33860;-89
2022/05/13 01:06:25;;;;;;;;;;;;;;;24.43;41.01;99647.44;5401092;26;33161;-89
2022/05/13 01:08:53;;;;;;;;;;;;;;;24.37;40.80;99648.72;5407310;26;33527;-89
2022/05/13 01:11:22;;;;;;;;;;;;;;;24.44;40.92;99646.47;5401657;26;34397;-89
2022/05/13 01:13:52;;;;;;;;;;;;;;;24.59;39.98;99648.06;5403698;26;34017;-89
2022/05/13 01:16:20;;;;;;;;;;;;;;;24.41;41.66;99644.91;5402915;26;33406;-90
2022/05/13 01:18:50;;;;;;;;;;;;;;;24.59;40.10;99639.25;5402584;26;33635;-90
2022/05/13 01:21:20;;;;;;;;;;;;;;;24.30;41.02;99628.06;5407681;26;34532;-89
2022/05/13 01:23:50;;;;;;;;;;;;;;;24.31;40.77;99624.44;5402241;26;33471;-90
2022/05/13 01:26:22;;;;;;;;;;;;;;;24.47;40.42;99635.69;5403190;26;32888;-90
2022/05/13 01:28:51;;;;;;;;;;;;;;;24.47;40.74;99633.88;5404530;26;33318;-89
2022/05/13 01:31:24;;;;;;;;;;;;;;;24.41;40.98;99633.44;5404956;26;33840;-90
2022/05/13 01:33:53;;;;;;;;;;;;;;;24.45;40.99;99637.56;5409028;26;33566;-90
2022/05/13 01:36:22;;;;;;;;;;;;;;;24.19;41.76;99634.13;5404307;26;33807;-90
2022/05/13 01:38:52;;;;;;;;;;;;;;;24.29;41.17;99632.50;5403988;26;34923;-90
2022/05/13 01:41:21;;;;;;;;;;;;;;;24.14;43.24;99633.56;5404149;26;34540;-90
2022/05/13 01:43:50;;;;;;;;;;;;;;;24.24;43.11;99643.44;5404016;26;34842;-91
2022/05/13 01:46:18;;;;;;;;;;;;;;;24.22;41.81;99640.03;5410160;26;33293;-90
2022/05/13 01:48:47;;;;;;;;;;;;;;;24.24;42.03;99635.50;5403679;26;34672;-90
2022/05/13 01:51:16;;;;;;;;;;;;;;;23.95;42.28;99631.41;5403509;26;33858;-90
2022/05/13 01:53:44;;;;;;;;;;;;;;;24.04;42.38;99636.03;5403700;26;34274;-91
2022/05/13 01:56:14;;;;;;;;;;;;;;;24.30;41.32;99626.25;5404113;26;33025;-90
2022/05/13 01:58:43;;;;;;;;;;;;;;;24.18;42.12;99629.75;5409084;26;33069;-90
2022/05/13 02:01:11;;;;;;;;;;;;;;;24.32;41.02;99629.63;5403436;26;33351;-90
2022/05/13 02:03:46;;;;;;;;;;;;;;;24.18;41.14;99632.41;5403225;26;34639;-90
2022/05/13 02:06:18;;;;;;;;;;;;;;;24.17;40.69;99626.28;5402893;26;33484;-90
2022/05/13 02:08:46;;;;;;;;;;;;;;;23.70;41.90;99626.91;5403531;26;33733;-90
2022/05/13 02:11:16;;;;;;;;;;;;;;;23.90;40.96;99629.06;5403991;26;34579;-90
2022/05/13 02:13:45;;;;;;;;;;;;;;;23.59;41.57;99625.84;5410746;26;35032;-89
2022/05/13 02:16:14;;;;;;;;;;;;;;;23.52;41.80;99624.56;5404350;26;34158;-90
2022/05/13 02:18:42;;;;;;;;;;;;;;;23.69;41.47;99623.41;5403898;26;33748;-91
2022/05/13 02:21:11;;;;;;;;;;;;;;;23.43;42.06;99628.66;5403367;26;34018;-90
2022/05/13 02:23:39;;;;;;;;;;;;;;;23.03;42.96;99632.25;5404499;26;34333;-90
2022/05/13 02:26:09;;;;;;;;;;;;;;;23.36;42.35;99629.19;5409815;26;33480;-90
2022/05/13 02:28:38;;;;;;;;;;;;;;;23.44;42.11;99632.19;5403578;26;33705;-90
2022/05/13 02:31:08;;;;;;;;;;;;;;;23.51;42.12;99622.00;5403434;26;33298;-90
2022/05/13 02:33:36;;;;;;;;;;;;;;;23.39;42.40;99619.25;5403944;26;34561;-90
2022/05/13 02:36:05;;;;;;;;;;;;;;;23.53;42.38;99613.00;5401937;26;33088;-90
2022/05/13 02:38:34;;;;;;;;;;;;;;;23.73;42.17;99627.59;5408917;26;33192;-90
2022/05/13 02:41:15;;;;;;;;;;;;;;;23.38;43.35;99625.47;5404311;26;34082;-90
2022/05/13 02:43:46;;;;;;;;;;;;;;;23.48;43.20;99624.88;5404171;26;34025;-89
2022/05/13 02:46:15;;;;;;;;;;;;;;;23.42;43.63;99623.50;5403954;26;32966;-90
2022/05/13 02:48:44;;;;;;;;;;;;;;;23.40;43.57;99618.28;5403350;26;34923;-89
2022/05/13 02:51:13;;;;;;;;;;;;;;;23.25;44.15;99616.69;5406576;26;34279;-90
2022/05/13 02:53:41;;;;;;;;;;;;;;;23.36;43.86;99626.53;5409222;26;34757;-90
2022/05/13 02:56:10;;;;;;;;;;;;;;;23.24;44.30;99628.19;5404234;26;33636;-91
2022/05/13 02:58:39;;;;;;;;;;;;;;;23.31;44.38;99616.25;5402676;26;34232;-90
2022/05/13 03:01:10;;;;;;;;;;;;;;;23.42;44.17;99626.97;5404120;26;33978;-90
2022/05/13 03:03:39;;;;;;;;;;;;;;;23.54;43.71;99627.13;5403685;26;34310;-90
2022/05/13 03:06:07;;;;;;;;;;;;;;;23.62;44.30;99646.81;5409492;26;33236;-90
2022/05/13 03:08:36;;;;;;;;;;;;;;;23.58;44.27;99649.75;5403530;26;35191;-90
2022/05/13 03:11:05;;;;;;;;;;;;;;;23.16;44.79;99647.25;5404440;26;33675;-90
2022/05/13 03:13:33;;;;;;;;;;;;;;;23.36;44.12;99656.50;5404104;26;34224;-90
2022/05/13 03:16:02;;;;;;;;;;;;;;;23.17;44.34;99661.31;5403725;26;33733;-90
2022/05/13 03:18:32;;;;;;;;;;;;;;;23.18;43.87;99668.31;5408415;26;34087;-91
2022/05/13 03:21:02;;;;;;;;;;;;;;;23.18;44.13;99666.53;5404408;26;34089;-90
2022/05/13 03:23:31;;;;;;;;;;;;;;;23.09;44.11;99669.75;5401608;26;35591;-90
2022/05/13 03:25:59;;;;;;;;;;;;;;;23.18;43.99;99666.53;5403363;26;33384;-90
2022/05/13 03:28:27;;;;;;;;;;;;;;;22.99;44.16;99671.31;5403879;26;34262;-90
2022/05/13 03:30:56;;;;;;;;;;;;;;;23.25;43.83;99676.72;5403559;26;34694;-90
2022/05/13 03:33:25;;;;;;;;;;;;;;;23.25;43.49;99669.62;5408867;26;34380;-90
2022/05/13 03:35:53;;;;;;;;;;;;;;;23.33;43.41;99677.88;5404187;26;33333;-89
2022/05/13 03:38:23;;;;;;;;;;;;;;;23.37;43.21;99671.44;5404833;26;34632;-90
2022/05/13 03:40:52;;;;;;;;;;;;;;;23.28;43.32;99673.84;5403826;26;34617;-90
2022/05/13 03:43:20;;;;;;;;;;;;;;;23.38;43.35;99670.47;5403040;26;34330;-90
2022/05/13 03:45:49;;;;;;;;;;;;;;;23.23;43.60;99662.72;5410110;26;34241;-90
2022/05/13 03:48:17;;;;;;;;;;;;;;;23.09;43.73;99667.13;5404045;26;33936;-90
2022/05/13 03:50:46;;;;;;;;;;;;;;;22.83;44.74;99682.00;5404532;26;34741;-90
2022/05/13 03:53:15;;;;;;;;;;;;;;;23.17;44.01;99683.34;5404921;26;34535;-91
2022/05/13 03:55:45;;;;;;;;;;;;;;;22.94;44.80;99692.75;5404024;26;33127;-91
2022/05/13 03:58:14;;;;;;;;;;;;;;;22.67;45.75;99687.44;5410928;26;33960;-90
2022/05/13 04:00:44;;;;;;;;;;;;;;;22.43;46.65;99687.19;5403788;26;34267;-90
2022/05/13 04:03:13;;;;;;;;;;;;;;;22.32;47.09;99689.63;5405037;26;33355;-90
2022/05/13 04:11:15;;;;;;;;;;;;;;;22.24;47.82;99686.63;5405018;26;34296;-90
2022/05/13 04:16:31;;;;;;;;;;;;;;;22.20;48.51;99696.50;5410000;26;33075;-90
2022/05/13 04:18:59;;;;;;;;;;;;;;;22.09;49.46;99701.59;5403742;26;34495;-90
2022/05/13 04:21:29;;;;;;;;;;;;;;;22.01;50.28;99702.06;5404705;26;34971;-90
2022/05/13 04:24:01;;;;;;;;;;;;;;;21.76;51.82;99697.38;5403821;26;34909;-90
2022/05/13 04:26:31;;;;;;;;;;;;;;;21.73;52.80;99693.12;5405267;26;34463;-90
2022/05/13 04:29:00;;;;;;;;;;;;;;;21.58;53.80;99696.69;5410335;26;33333;-89
2022/05/13 04:31:29;;;;;;;;;;;;;;;21.53;54.36;99701.38;5402516;26;33997;-90
2022/05/13 04:33:57;;;;;;;;;;;;;;;21.25;55.47;99702.94;5402505;26;33991;-90
2022/05/13 04:36:26;;;;;;;;;;;;;;;21.57;54.73;99712.59;5401801;26;34035;-90
2022/05/13 04:38:55;;;;;;;;;;;;;;;21.44;55.26;99708.03;5402303;26;34027;-90
2022/05/13 04:44:11;;;;;;;;;;;;;;;21.84;54.10;99716.28;5408960;26;33808;-90
2022/05/13 04:46:40;;;;;;;;;;;;;;;21.54;54.81;99711.00;5403354;26;32884;-91
2022/05/13 04:49:09;;;;;;;;;;;;;;;21.73;54.57;99708.97;5401824;26;34505;-91
2022/05/13 04:51:37;;;;;;;;;;;;;;;21.61;54.54;99703.56;5403737;26;33974;-90
2022/05/13 04:54:06;;;;;;;;;;;;;;;21.49;54.96;99711.25;5403739;26;34712;-90
2022/05/13 04:56:35;;;;;;;;;;;;;;;21.57;54.96;99713.44;5409219;26;33763;-90
2022/05/13 04:59:03;;;;;;;;;;;;;;;21.96;53.62;99714.66;5403108;26;34121;-89
2022/05/13 05:01:33;;;;;;;;;;;;;;;21.88;53.87;99716.94;5401861;26;33632;-90
2022/05/13 05:04:02;;;;;;;;;;;;;;;22.17;53.29;99728.38;5402748;26;35041;-90
2022/05/13 05:06:30;;;;;;;;;;;;;;;22.00;53.65;99732.03;5403320;26;33904;-91
2022/05/13 05:09:00;;;;;;;;;;;;;;;21.90;53.67;99737.03;5408397;26;34117;-91
2022/05/13 05:11:31;;;;;;;;;;;;;;;21.96;53.79;99746.38;5408619;26;32917;-90
2022/05/13 05:14:00;;;;;;;;;;;;;;;21.74;54.92;99750.25;5403337;26;33886;-91
2022/05/13 05:16:29;;;;;;;;;;;;;;;21.89;54.91;99748.53;5401397;26;32656;-90
2022/05/13 05:18:59;;;;;;;;;;;;;;;21.65;55.09;99758.75;5402790;26;34713;-90
2022/05/13 05:21:29;;;;;;;;;;;;;;;21.53;56.03;99751.53;5402843;26;33951;-91
2022/05/13 05:23:58;;;;;;;;;;;;;;;21.72;54.40;99749.53;5409567;26;34304;-91
2022/05/13 05:26:26;;;;;;;;;;;;;;;21.91;54.99;99753.72;5403181;26;33262;-90
2022/05/13 05:28:57;;;;;;;;;;;;;;;22.13;54.77;99755.91;5402820;26;33895;-91
2022/05/13 05:31:25;;;;;;;;;;;;;;;21.93;55.26;99752.69;5403157;26;34541;-91
2022/05/13 05:33:54;;;;;;;;;;;;;;;21.95;55.21;99765.81;5402016;26;34170;-90
2022/05/13 05:36:24;;;;;;;;;;;;;;;21.96;54.29;99759.56;5409097;26;33881;-90
2022/05/13 05:38:52;;;;;;;;;;;;;;;22.21;53.26;99760.81;5403812;26;33949;-92
2022/05/13 05:41:21;;;;;;;;;;;;;;;22.50;52.67;99759.03;5403662;26;34593;-90
2022/05/13 05:43:51;;;;;;;;;;;;;;;22.82;50.58;99757.00;5404969;26;34197;-91
2022/05/13 05:46:20;;;;;;;;;;;;;;;22.91;49.70;99756.44;5402983;26;33420;-91
2022/05/13 05:48:48;;;;;;;;;;;;;;;22.63;50.28;99762.59;5409118;26;34092;-91
2022/05/13 05:51:17;;;;;;;;;;;;;;;22.89;49.58;99760.13;5403222;26;33668;-91
2022/05/13 05:59:19;;;;;;;;;;;;;;;23.39;49.58;99770.16;5405463;26;34903;-91
2022/05/13 06:01:48;;;;;;;;;;;;;;;23.54;49.08;99772.75;5403956;26;35059;-90
2022/05/13 06:04:20;;;;;;;;;;;;;;;23.79;48.56;99766.69;5403787;26;34281;-90
2022/05/13 06:06:48;;;;;;;;;;;;;;;24.06;48.40;99770.13;5409245;26;34077;-90
2022/05/13 06:09:18;;;;;;;;;;;;;;;24.15;47.69;99776.62;5402728;26;34101;-90
2022/05/13 06:11:47;;;;;;;;;;;;;;;24.20;48.28;99774.50;5404019;26;34371;-91
2022/05/13 06:14:16;;;;;;;;;;;;;;;24.40;48.19;99783.72;5403982;26;33623;-91
2022/05/13 06:16:45;;;;;;;;;;;;;;;24.62;46.93;99783.12;5404363;26;32738;-91
2022/05/13 06:19:14;;;;;;;;;;;;;;;24.70;45.80;99777.28;5408627;26;34686;-91
2022/05/13 06:21:43;;;;;;;;;;;;;;;24.47;47.07;99786.84;5403097;26;35043;-90
2022/05/13 06:24:12;;;;;;;;;;;;;;;24.34;47.44;99776.19;5402846;26;34828;-90
2022/05/13 06:26:42;;;;;;;;;;;;;;;24.78;45.87;99784.69;5402587;26;32940;-91
2022/05/13 06:29:10;;;;;;;;;;;;;;;24.18;47.30;99776.41;5403099;26;34842;-91
2022/05/13 06:31:39;;;;;;;;;;;;;;;24.39;47.35;99778.53;5409276;26;34265;-91
2022/05/13 06:34:08;;;;;;;;;;;;;;;24.96;45.92;99787.84;5383726;26;35203;-91
2022/05/13 06:36:39;;;;;;;;;;;;;;;24.68;42.49;99774.72;5404251;26;33430;-91
2022/05/13 06:39:08;;;;;;;;;;;;;;;24.63;42.12;99776.84;5383994;26;35115;-91
2022/05/13 06:41:37;;;;;;;;;;;;;;;24.49;41.22;99775.16;5403804;26;34739;-92
2022/05/13 06:44:10;;;;;;;;;;;;;;;24.19;41.26;99772.81;5405252;26;34699;-90
2022/05/13 06:46:39;;;;;;;;;;;;;;;24.48;40.54;99785.91;5408356;26;33849;-90
2022/05/13 06:49:10;;;;;;;;;;;;;;;24.42;41.07;99781.81;5382952;26;34917;-91
2022/05/13 06:51:41;;;;;;;;;;;;;;;24.72;40.92;99783.34;5403430;26;34774;-91
2022/05/13 06:54:10;;;;;;;;;;;;;;;24.99;40.27;99777.84;5403082;26;34823;-91
2022/05/13 06:56:39;;;;;;;;;;;;;;;25.00;39.33;99797.28;5403029;26;33460;-90
2022/05/13 06:59:09;;;;;;;;;;;;;;;25.15;40.69;99788.19;5406372;26;33870;-90
2022/05/13 07:01:41;;;;;;;;;;;;;;;25.01;43.29;99791.00;5402443;26;33733;-91
2022/05/13 07:04:09;;;;;;;;;;;;;;;24.72;44.32;99801.91;5402650;26;33937;-91
2022/05/13 07:06:39;;;;;;;;;;;;;;;24.68;45.34;99801.25;5403201;26;32867;-92
2022/05/13 07:09:10;;;;;;;;;;;;;;;25.02;44.96;99803.34;5402651;26;34764;-91
2022/05/13 07:11:39;;;;;;;;;;;;;;;25.40;44.14;99810.37;5408875;26;34537;-91
2022/05/13 07:14:07;;;;;;;;;;;;;;;25.34;43.74;99809.00;5385854;26;34836;-91
2022/05/13 07:16:37;;;;;;;;;;;;;;;25.28;43.35;99807.66;5405556;26;32879;-91
2022/05/13 07:19:07;;;;;;;;;;;;;;;25.41;42.90;99796.13;5385536;26;35117;-91
2022/05/13 07:21:37;;;;;;;;;;;;;;;25.84;38.44;99790.28;5406624;26;36667;-91
2022/05/13 07:24:05;;;;;;;;;;;;;;;25.89;40.44;99793.47;5410326;26;34333;-92
2022/05/13 07:26:34;;;;;;;;;;;;;;;26.02;39.78;99796.03;5406339;26;33971;-91
2022/05/13 07:29:04;;;;;;;;;;;;;;;25.79;37.69;99782.66;5405340;26;34317;-92
2022/05/13 07:31:33;;;;;;;;;;;;;;;26.23;36.75;99785.59;5386113;26;34825;-92
2022/05/13 07:34:04;;;;;;;;;;;;;;;26.22;36.31;99782.09;5406018;26;34038;-92
2022/05/13 07:36:33;;;;;;;;;;;;;;;26.32;38.78;99785.72;5389986;26;33955;-91
2022/05/13 07:41:48;;;;;;;;;;;;;;;26.97;38.03;99786.03;5405041;26;34036;-91
2022/05/13 07:44:17;;;;;;;;;;;;;;;26.97;34.74;99791.34;5405951;26;35069;-92
2022/05/13 07:46:46;;;;;;;;;;;;;;;26.51;38.16;99792.28;5384507;26;33731;-91
2022/05/13 07:49:16;;;;;;;;;;;;;;;26.64;38.83;99795.69;5385304;26;35102;-91
2022/05/13 07:51:44;;;;;;;;;;;;;;;26.60;38.04;99799.56;5409501;26;34200;-92
2022/05/13 07:54:13;;;;;;;;;;;;;;;26.53;39.68;99801.88;5405211;26;34278;-93
2022/05/13 07:56:44;;;;;;;;;;;;;;;26.59;39.91;99812.03;5385035;26;33357;-91
2022/05/13 07:59:12;;;;;;;;;;;;;;;26.04;38.25;99816.22;5405368;26;34126;-91
2022/05/13 08:01:41;;;;;;;;;;;;;;;25.84;38.40;99808.91;5403505;26;33760;-91
2022/05/13 08:04:11;;;;;;;;;;;;;;;25.72;40.19;99819.47;5409986;26;33866;-94
2022/05/13 08:06:42;;;;;;;;;;;;;;;25.56;38.47;99810.94;5404693;26;32365;-91
2022/05/13 08:09:10;;;;;;;;;;;;;;;25.19;40.37;99826.06;5405373;26;33067;-91
2022/05/13 08:11:39;;;;;;;;;;;;;;;24.62;41.84;99828.22;5404197;26;35080;-92
2022/05/13 08:14:07;;;;;;;;;;;;;;;24.46;42.62;99827.59;5403600;26;33588;-90
2022/05/13 08:16:39;;;;;;;;;;;;;;;24.16;43.66;99834.00;5402261;26;34738;-90
2022/05/13 08:19:08;;;;;;;;;;;;;;;23.96;44.82;99827.34;5408011;26;34175;-91
2022/05/13 08:21:37;;;;;;;;;;;;;;;24.29;44.76;99836.66;5402004;26;35183;-91
2022/05/13 08:24:08;;;;;;;;;;;;;;;24.12;45.18;99832.50;5402495;26;34141;-90
2022/05/13 08:26:38;;;;;;;;;;;;;;;24.13;45.34;99836.81;5402832;26;34269;-91
2022/05/13 08:29:07;;;;;;;;;;;;;;;24.03;45.75;99838.41;5402937;26;33508;-91
2022/05/13 08:31:35;;;;;;;;;;;;;;;23.97;46.16;99837.03;5409483;26;33881;-92
2022/05/13 08:34:04;;;;;;;;;;;;;;;23.96;46.25;99837.94;5383913;26;34421;-92
2022/05/13 08:36:33;;;;;;;;;;;;;;;23.96;46.05;99830.00;5402245;26;33156;-90
2022/05/13 08:39:07;;;;;;;;;;;;;;;24.09;45.37;99827.41;5402371;26;35178;-91
2022/05/13 08:42:10;;;;;;;;;;;;;;;23.94;45.19;99821.31;5378881;26;33402;-91
2022/05/13 08:44:39;;;;;;;;;;;;;;;23.55;46.18;99836.19;5380246;26;33967;-91
2022/05/13 08:47:15;;;;;;;;;;;;;;;23.79;46.08;99838.22;5381028;26;32462;-91
2022/05/13 08:49:52;;;;;;;;;;;;;;;23.91;45.34;99836.56;5385533;26;34570;-93
2022/05/13 08:55:13;;;;;;;;;;;;;;;24.15;44.79;99839.38;5366349;26;33759;-90
2022/05/13 08:57:44;;;;;;;;;;;;;;;24.67;44.31;99820.78;5361020;26;34052;-92
2022/05/13 09:00:14;;;;;;;;;;;;;;;24.59;44.08;99823.09;5380456;26;33928;-91
2022/05/13 09:02:45;;;;;;;;;;;;;;;24.55;43.99;99815.47;5383345;26;34170;-91
2022/05/13 09:05:17;;;;;;;;;;;;;;;24.62;43.84;99812.31;5384333;26;34493;-90
2022/05/13 09:07:46;;;;;;;;;;;;;;;24.68;43.99;99822.47;5379041;26;33643;-91
2022/05/13 09:10:20;;;;;;;;;;;;;;;24.49;43.77;99819.41;5380995;26;33486;-91
2022/05/13 09:12:51;;;;;;;;;;;;;;;24.54;43.78;99804.00;5381087;26;34360;-91
2022/05/13 09:15:20;;;;;;;;;;;;;;;25.08;43.20;99813.50;5381030;26;35166;-91
2022/05/13 09:17:59;;;;;;;;;;;;;;;25.47;43.03;99809.81;5385747;26;33108;-91
2022/05/13 09:20:31;;;;;;;;;;;;;;;25.64;42.84;99815.69;5385755;26;33484;-91
2022/05/13 09:23:00;;;;;;;;;;;;;;;25.59;42.56;99815.16;5380820;26;33974;-91
2022/05/13 09:25:29;;;;;;;;;;;;;;;25.51;42.27;99816.56;5381659;26;34917;-91
2022/05/13 09:28:00;;;;;;;;;;;;;;;25.30;43.26;99823.47;5380645;26;34163;-91
2022/05/13 09:30:30;;;;;;;;;;;;;;;25.68;43.38;99817.16;5378964;26;34834;-91
2022/05/13 09:32:58;;;;;;;;;;;;;;;25.63;42.26;99814.00;5383201;26;33393;-91
2022/05/13 09:35:31;;;;;;;;;;;;;;;25.57;42.69;99819.78;5378221;26;34858;-90
2022/05/13 09:37:59;;;;;;;;;;;;;;;25.58;42.68;99816.13;5379094;26;33474;-90
2022/05/13 09:40:28;;;;;;;;;;;;;;;25.60;43.05;99825.69;5360162;26;34258;-91
2022/05/13 09:42:57;;;;;;;;;;;;;;;25.41;42.96;99822.69;5380873;26;34492;-90
2022/05/13 09:45:28;;;;;;;;;;;;;;;25.36;43.10;99815.06;5387750;26;33833;-91
2022/05/13 09:48:11;;;;;;;;;;;;;;;25.10;43.90;99831.03;5384971;26;33495;-90
2022/05/13 09:50:41;;;;;;;;;;;;;;;24.58;44.87;99829.38;5381038;26;34944;-91
2022/05/13 09:53:25;;;;;;;;;;;;;;;24.78;45.03;99827.16;5380961;26;35620;-91
2022/05/13 09:55:54;;;;;;;;;;;;;;;24.89;44.96;99837.88;5349675;26;798625;-92
2022/05/13 09:58:24;;;;;;;;;;;;;;;25.04;45.00;99831.47;5380441;26;33414;-90
2022/05/13 10:00:54;;;;;;;;;;;;;;;25.05;45.17;99829.66;5381639;26;34143;-90
2022/05/13 10:03:25;;;;;;;;;;;;;;;24.94;45.54;99821.62;5386056;26;33818;-92
2022/05/13 10:05:55;;;;;;;;;;;;;;;25.07;45.86;99819.78;5380455;26;33470;-91
2022/05/13 10:08:27;;;;;;;;;;;;;;;25.13;45.81;99822.84;5380944;26;33207;-91
2022/05/13 10:14:01;;;;;;;;;;;;;;;25.53;44.50;99806.69;5380032;26;33673;-91
2022/05/13 12:45:27;;;;;;;;;;;;;;;25.38;39.85;99753.88;5402048;26;34997;-92
2022/05/13 12:55:19;;;;;;;;;;;;;;;25.04;40.78;99741.22;5394526;26;34426;-89
2022/05/13 12:58:02;;;;;;;;;;;;;;;24.90;40.83;99744.00;5332687;26;35113;-90
2022/05/13 14:43:03;;;;;;;;;;;;;;;23.99;45.51;99631.06;5403736;26;19961;31
2022/05/13 14:45:33;;;;;;;;;;;;;;;24.76;44.18;99616.81;5403137;26;34181;-91
2022/05/13 14:48:13;;;;;;;;;;;;;;;25.20;43.71;99600.28;5401551;26;33670;-91
2022/05/13 14:50:42;;;;;;;;;;;;;;;25.78;42.55;99605.56;5402115;26;33934;-91
2022/05/13 14:53:11;;;;;;;;;;;;;;;26.43;40.68;99603.16;5401786;26;33767;-91
2022/05/13 14:55:43;;;;;;;;;;;;;;;27.23;39.34;99600.16;5407656;26;33882;-90
2022/05/13 14:58:17;;;;;;;;;;;;;;;27.76;36.65;99609.88;5402888;26;34176;-90
2022/05/13 15:00:50;;;;;;;;;;;;;;;26.94;38.44;99608.75;5402550;26;33368;-92
2022/05/13 15:03:22;;;;;;;;;;;;;;;27.06;37.91;99614.00;5403987;26;34837;-92
2022/05/13 15:05:51;;;;;;;;;;;;;;;27.23;37.76;99609.03;5403142;26;33948;-92
2022/05/13 15:08:42;;;;;;;;;;;;;;;27.14;37.98;99596.44;5403238;26;33268;-92
2022/05/13 15:11:11;;;;;;;;;;;;;;;26.97;37.67;99605.00;5408625;26;34157;-91
2022/05/13 15:13:45;;;;;;;;;;;;;;;26.76;38.24;99607.59;5409022;26;33218;-92
2022/05/13 15:16:14;;;;;;;;;;;;;;;26.22;39.57;99611.91;5401487;26;34270;-90
2022/05/13 15:18:43;;;;;;;;;;;;;;;26.24;38.60;99611.75;5401686;26;34271;-90
2022/05/13 15:21:12;;;;;;;;;;;;;;;26.17;39.47;99609.59;5402563;26;34199;-91
2022/05/13 15:23:40;;;;;;;;;;;;;;;26.14;38.95;99614.31;5402346;26;34157;-92
2022/05/13 15:26:09;;;;;;;;;;;;;;;26.63;38.15;99607.75;5408113;26;34316;-92
2022/05/13 15:28:37;;;;;;;;;;;;;;;27.19;37.43;99617.38;5402446;26;32858;-91
2022/05/13 15:31:07;;;;;;;;;;;;;;;27.57;36.45;99608.81;5402809;26;34464;-92
2022/05/13 15:33:36;;;;;;;;;;;;;;;27.95;35.93;99614.50;5403511;26;35098;-91
2022/05/13 15:36:04;;;;;;;;;;;;;;;27.94;35.40;99613.69;5401164;26;34839;-90
2022/05/13 15:38:33;;;;;;;;;;;;;;;27.87;35.68;99612.53;5408767;26;32663;-90
2022/05/13 15:41:01;;;;;;;;;;;;;;;28.00;35.34;99609.63;5402198;26;34928;-91
2022/05/13 15:43:30;;;;;;;;;;;;;;;28.27;35.04;99609.00;5403642;26;34206;-90
2022/05/13 15:45:58;;;;;;;;;;;;;;;28.13;34.79;99606.75;5403481;26;34956;-90
2022/05/13 15:48:28;;;;;;;;;;;;;;;27.35;35.62;99608.94;5404456;26;33594;-88
2022/05/13 15:53:43;;;;;;;;;;;;;;;28.04;35.01;99598.56;5409105;26;34330;-89
2022/05/13 15:56:12;;;;;;;;;;;;;;;28.06;35.00;99598.44;5383523;26;32477;-90
2022/05/13 15:58:41;;;;;;;;;;;;;;;27.54;35.76;99601.06;5404234;26;33331;-89
2022/05/13 16:01:30;;;;;;;;;;;;;;;27.15;36.82;99597.28;5400878;26;34577;-88
2022/05/13 16:04:01;;;;;;;;;;;;;;;27.09;36.78;99588.00;5401074;26;34203;-89
2022/05/13 16:06:29;;;;;;;;;;;;;;;26.97;37.49;99589.84;5403603;26;33680;-90
2022/05/13 16:08:57;;;;;;;;;;;;;;;27.06;36.92;99582.06;5409653;26;34148;-91
2022/05/13 16:11:27;;;;;;;;;;;;;;;27.17;37.13;99582.84;5403384;26;33803;-90
2022/05/13 16:13:55;;;;;;;;;;;;;;;27.29;36.91;99580.16;5404069;26;34169;-90
2022/05/13 16:16:26;;;;;;;;;;;;;;;27.53;36.51;99580.75;5403424;26;34815;-89
2022/05/13 16:18:55;;;;;;;;;;;;;;;27.86;35.82;99577.03;5387976;26;32249;-90
2022/05/13 16:21:35;;;;;;;;;;;;;;;28.19;35.22;99574.19;5403100;26;34529;-89
2022/05/13 16:24:06;;;;;;;;;;;;;;;28.29;35.01;99577.72;5402488;26;34076;-88
2022/05/13 16:26:35;;;;;;;;;;;;;;;28.44;35.10;99573.69;5402778;26;33373;-89
2022/05/13 16:29:05;;;;;;;;;;;;;;;28.72;34.49;99574.72;5404547;26;33738;-89
2022/05/13 16:31:38;;;;;;;;;;;;;;;28.82;33.92;99565.87;5387514;26;34429;-89
2022/05/13 16:34:07;;;;;;;;;;;;;;;29.04;33.73;99568.25;5404390;26;34297;-88
2022/05/13 16:39:24;;;;;;;;;;;;;;;29.34;33.50;99564.59;5381899;26;32396;-89
2022/05/13 16:41:55;;;;;;;;;;;;;;;29.32;32.72;99568.41;5403707;26;34552;-89
2022/05/13 16:44:23;;;;;;;;;;;;;;;29.28;33.24;99559.81;5407947;26;34964;-88
2022/05/13 16:46:54;;;;;;;;;;;;;;;29.32;32.93;99550.53;5382912;26;33322;-90
2022/05/13 16:49:22;;;;;;;;;;;;;;;29.07;33.49;99540.47;5403628;26;34793;-90
2022/05/13 16:51:52;;;;;;;;;;;;;;;29.19;33.51;99550.03;5401569;26;37394;-88
2022/05/13 16:54:21;;;;;;;;;;;;;;;29.11;32.93;99549.88;5388047;26;32822;-88
2022/05/13 16:56:49;;;;;;;;;;;;;;;28.73;33.87;99543.56;5401152;26;33667;-89
2022/05/13 16:59:18;;;;;;;;;;;;;;;28.41;34.82;99547.25;5403206;26;33645;-89
2022/05/13 17:01:47;;;;;;;;;;;;;;;27.85;35.50;99542.47;5403002;26;34088;-89
2022/05/13 17:04:19;;;;;;;;;;;;;;;27.29;36.32;99549.03;5404090;26;34280;-89
2022/05/13 17:06:47;;;;;;;;;;;;;;;27.06;36.84;99550.09;5407982;26;33493;-89
2022/05/13 17:17:36;;;;;;;;;;;;;;;26.19;39.22;99564.25;5402123;26;34293;-88
2022/05/13 17:20:05;;;;;;;;;;;;;;;25.87;40.06;99554.38;5408983;26;33214;-89
2022/05/13 17:22:33;;;;;;;;;;;;;;;25.85;40.61;99552.78;5402594;26;34258;-89
2022/05/13 17:25:03;;;;;;;;;;;;;;;26.08;39.97;99551.84;5402986;26;33740;-88
2022/05/13 17:27:33;;;;;;;;;;;;;;;25.72;40.99;99543.13;5402509;26;34082;-88
2022/05/13 17:30:03;;;;;;;;;;;;;;;25.85;40.85;99543.00;5403478;26;33262;-89
2022/05/13 17:32:33;;;;;;;;;;;;;;;25.84;40.94;99540.47;5407800;26;33725;-88
2022/05/13 17:35:05;;;;;;;;;;;;;;;25.90;40.87;99540.00;5402953;26;34506;-88
2022/05/13 17:37:35;;;;;;;;;;;;;;;25.73;41.26;99549.28;5403667;26;33437;-88
2022/05/13 17:40:06;;;;;;;;;;;;;;;25.66;41.56;99551.59;5403735;26;32912;-88
2022/05/13 17:42:35;;;;;;;;;;;;;;;25.42;42.11;99551.69;5409068;26;33941;-87
2022/05/13 17:45:03;;;;;;;;;;;;;;;25.40;42.43;99561.56;5403385;26;34275;-88
2022/05/13 17:47:32;;;;;;;;;;;;;;;25.30;42.71;99564.09;5402809;26;34708;-88
2022/05/13 17:50:00;;;;;;;;;;;;;;;25.33;42.88;99569.16;5403555;26;33518;-88
2022/05/13 17:52:29;;;;;;;;;;;;;;;25.23;43.22;99559.37;5402718;26;34983;-88
2022/05/13 17:54:57;;;;;;;;;;;;;;;25.20;43.43;99564.91;5409108;26;34011;-88
2022/05/13 17:57:28;;;;;;;;;;;;;;;25.09;43.75;99569.19;5403285;26;34867;-88
2022/05/13 18:00:01;;;;;;;;;;;;;;;25.27;43.24;99569.66;5403682;26;33039;-88